createdAt,value
2019-04-25T00:01:01.213Z,16.87
2019-04-25T00:03:09.668Z,16.87
2019-04-25T00:05:19.073Z,14.65
2019-04-25T00:07:27.028Z,17.42
2019-04-25T00:09:37.585Z,19.40
2019-04-25T00:11:47.814Z,17.62
2019-04-25T00:13:55.546Z,15.25
2019-04-25T00:16:04.108Z,16.15
2019-04-25T00:18:12.176Z,17.17
2019-04-25T00:20:21.395Z,19.27
2019-04-25T00:22:31.694Z,16.20
2019-04-25T00:24:39.747Z,16.15
2019-04-25T00:26:49.208Z,16.35
2019-04-25T00:28:57.195Z,18.80
2019-04-25T00:31:05.691Z,18.85
2019-04-25T00:33:13.676Z,20.90
2019-04-25T00:35:21.761Z,15.72
2019-04-25T00:37:29.927Z,20.97
2019-04-25T00:39:37.883Z,20.10
2019-04-25T00:41:46.418Z,20.52
2019-04-25T00:43:55.596Z,21.30
2019-04-25T00:46:03.450Z,18.77
2019-04-25T00:48:12.260Z,19.07
2019-04-25T00:50:21.887Z,20.48
2019-04-25T00:52:31.360Z,18.42
2019-04-25T00:54:39.367Z,20.40
2019-04-25T00:56:48.262Z,20.30
2019-04-25T00:58:56.510Z,17.85
2019-04-25T01:01:12.080Z,17.87
2019-04-25T01:03:27.903Z,18.67
2019-04-25T01:05:35.766Z,20.35
2019-04-25T01:07:44.360Z,17.48
2019-04-25T01:09:53.643Z,17.65
2019-04-25T01:12:04.145Z,18.20
2019-04-25T01:14:12.037Z,18.52
2019-04-25T01:16:22.030Z,18.92
2019-04-25T01:18:31.415Z,15.58
2019-04-25T01:20:39.533Z,18.37
2019-04-25T01:22:47.414Z,15.98
2019-04-25T01:24:56.074Z,15.25
2019-04-25T01:27:05.906Z,20.50
2019-04-25T01:29:14.060Z,21.55
2019-04-25T01:31:24.890Z,16.95
2019-04-25T01:33:33.368Z,19.52
2019-04-25T01:35:46.215Z,18.42
2019-04-25T01:38:03.799Z,19.50
2019-04-25T01:40:14.500Z,17.20
2019-04-25T01:42:35.891Z,21.12
2019-04-25T01:44:45.390Z,22.60
2019-04-25T01:46:54.466Z,17.23
2019-04-25T01:49:04.320Z,22.00
2019-04-25T01:51:14.090Z,17.45
2019-04-25T01:53:22.102Z,20.60
2019-04-25T01:55:30.440Z,23.07
2019-04-25T01:57:38.235Z,18.92
2019-04-25T01:59:46.310Z,21.55
2019-04-25T02:01:55.431Z,19.35
2019-04-25T02:04:04.374Z,25.12
2019-04-25T02:06:13.663Z,30.88
2019-04-25T02:08:21.560Z,24.02
2019-04-25T02:10:30.525Z,27.25
2019-04-25T02:12:52.785Z,22.77
2019-04-25T02:15:03.936Z,23.70
2019-04-25T02:17:11.601Z,23.38
2019-04-25T02:19:19.414Z,22.70
2019-04-25T02:21:27.276Z,22.90
2019-04-25T02:23:35.167Z,19.10
2019-04-25T02:25:44.272Z,21.27
2019-04-25T02:27:53.395Z,21.15
2019-04-25T02:30:03.556Z,25.23
2019-04-25T02:32:11.494Z,23.47
2019-04-25T02:34:19.371Z,24.12
2019-04-25T02:36:27.395Z,23.22
2019-04-25T02:38:35.485Z,20.32
2019-04-25T02:40:45.445Z,24.40
2019-04-25T02:42:55.817Z,20.70
2019-04-25T02:45:19.408Z,22.37
2019-04-25T02:47:34.284Z,26.80
2019-04-25T02:49:44.794Z,23.32
2019-04-25T02:51:56.194Z,22.87
2019-04-25T02:54:06.774Z,21.02
2019-04-25T02:56:27.501Z,25.05
2019-04-25T02:58:24.297Z,21.55
2019-04-25T03:00:47.674Z,21.10
2019-04-25T03:02:44.561Z,25.40
2019-04-25T03:04:54.529Z,23.05
2019-04-25T03:07:07.152Z,27.02
2019-04-25T03:09:15.133Z,25.70
2019-04-25T03:11:24.298Z,21.90
2019-04-25T03:13:34.138Z,24.98
2019-04-25T03:15:41.454Z,24.20
2019-04-25T03:17:49.315Z,28.47
2019-04-25T03:20:15.190Z,26.80
2019-04-25T03:22:31.250Z,23.42
2019-04-25T03:24:39.083Z,25.30
2019-04-25T03:26:47.040Z,20.43
2019-04-25T03:28:54.895Z,23.55
2019-04-25T03:31:08.697Z,24.65
2019-04-25T03:33:18.915Z,21.95
2019-04-25T03:35:23.280Z,20.68
2019-04-25T03:37:33.035Z,28.35
2019-04-25T03:39:41.059Z,25.20
2019-04-25T03:41:48.854Z,24.10
2019-04-25T03:43:56.674Z,27.65
2019-04-25T03:46:06.167Z,24.72
2019-04-25T03:48:14.892Z,25.92
2019-04-25T03:50:23.297Z,23.55
2019-04-25T03:52:31.282Z,31.12
2019-04-25T03:54:39.169Z,25.43
2019-04-25T03:56:53.437Z,22.10
2019-04-25T03:58:56.819Z,24.95
2019-04-25T04:01:06.954Z,30.05
2019-04-25T04:03:15.290Z,22.73
2019-04-25T04:05:23.423Z,25.10
2019-04-25T04:07:33.599Z,29.60
2019-04-25T04:09:41.414Z,26.05
2019-04-25T04:11:49.401Z,26.77
2019-04-25T04:13:57.344Z,22.77
2019-04-25T04:16:06.433Z,24.30
2019-04-25T04:18:17.238Z,32.73
2019-04-25T04:20:38.864Z,26.93
2019-04-25T04:23:03.434Z,24.40
2019-04-25T04:25:13.865Z,28.25
2019-04-25T04:27:23.977Z,27.32
2019-04-25T04:29:33.144Z,24.90
2019-04-25T04:31:41.188Z,26.62
2019-04-25T04:33:48.957Z,26.40
2019-04-25T04:35:56.844Z,25.57
2019-04-25T04:38:04.684Z,22.58
2019-04-25T04:40:14.784Z,23.52
2019-04-25T04:42:23.756Z,31.52
2019-04-25T04:44:31.739Z,22.50
2019-04-25T04:46:39.528Z,23.55
2019-04-25T04:48:47.364Z,24.63
2019-04-25T04:50:55.261Z,25.35
2019-04-25T04:53:03.917Z,25.82
2019-04-25T04:55:15.588Z,27.75
2019-04-25T04:57:32.230Z,28.83
2019-04-25T04:59:33.787Z,26.48
2019-04-25T05:01:55.796Z,25.40
2019-04-25T05:04:09.170Z,24.18
2019-04-25T05:06:19.759Z,29.40
2019-04-25T05:08:29.328Z,27.02
2019-04-25T05:10:37.188Z,26.12
2019-04-25T05:12:45.076Z,28.27
2019-04-25T05:14:53.700Z,24.55
2019-04-25T05:17:01.761Z,25.23
2019-04-25T05:19:09.674Z,26.10
2019-04-25T05:21:18.252Z,22.40
2019-04-25T05:23:26.365Z,22.17
2019-04-25T05:25:34.565Z,23.15
2019-04-25T05:27:57.783Z,28.73
2019-04-25T05:29:52.047Z,20.30
2019-04-25T05:32:00.933Z,24.37
2019-04-25T05:34:08.754Z,21.25
2019-04-25T05:36:17.552Z,24.67
2019-04-25T05:38:26.314Z,22.60
2019-04-25T05:40:36.837Z,22.93
2019-04-25T05:42:47.189Z,24.63
2019-04-25T05:44:56.697Z,25.97
2019-04-25T05:47:04.793Z,23.20
2019-04-25T05:49:13.831Z,25.92
2019-04-25T05:51:23.539Z,24.95
2019-04-25T05:53:33.262Z,21.27
2019-04-25T05:55:41.179Z,24.12
2019-04-25T05:57:50.327Z,21.02
2019-04-25T05:59:58.258Z,23.27
2019-04-25T06:02:06.155Z,23.20
2019-04-25T06:04:15.107Z,20.10
2019-04-25T06:06:24.763Z,22.70
2019-04-25T06:08:34.259Z,20.65
2019-04-25T06:10:45.201Z,17.12
2019-04-25T06:12:53.618Z,20.80
2019-04-25T06:15:02.903Z,22.07
2019-04-25T06:17:15.622Z,17.90
2019-04-25T06:19:43.406Z,19.07
2019-04-25T06:21:51.479Z,18.00
2019-04-25T06:24:06.714Z,18.10
2019-04-25T06:26:24.806Z,17.60
2019-04-25T06:28:28.237Z,17.27
2019-04-25T06:30:36.635Z,21.70
2019-04-25T06:32:44.913Z,15.75
2019-04-25T06:34:54.272Z,17.27
2019-04-25T06:37:04.774Z,15.38
2019-04-25T06:39:14.183Z,18.40
2019-04-25T06:41:22.385Z,17.20
2019-04-25T06:43:30.598Z,15.93
2019-04-25T06:45:44.139Z,20.48
2019-04-25T06:48:01.302Z,17.75
2019-04-25T06:50:09.675Z,22.77
2019-04-25T06:52:17.512Z,14.93
2019-04-25T06:54:26.842Z,17.23
2019-04-25T06:56:35.418Z,19.95
2019-04-25T06:58:43.993Z,18.20
2019-04-25T07:00:58.835Z,18.48
2019-04-25T07:03:01.862Z,20.75
2019-04-25T07:05:25.628Z,18.80
2019-04-25T07:07:24.282Z,12.43
2019-04-25T07:09:34.299Z,18.55
2019-04-25T07:11:41.556Z,20.95
2019-04-25T07:13:49.920Z,21.15
2019-04-25T07:15:57.809Z,17.48
2019-04-25T07:18:05.997Z,17.50
2019-04-25T07:20:14.993Z,19.70
2019-04-25T07:22:23.897Z,18.77
2019-04-25T07:24:35.194Z,19.25
2019-04-25T07:26:44.245Z,18.15
2019-04-25T07:29:11.201Z,21.15
2019-04-25T07:31:33.547Z,21.70
2019-04-25T07:33:53.568Z,19.20
2019-04-25T07:36:04.141Z,16.73
2019-04-25T07:38:14.006Z,19.27
2019-04-25T07:40:23.677Z,18.55
2019-04-25T07:42:34.236Z,13.78
2019-04-25T07:44:50.583Z,17.10
2019-04-25T07:46:54.127Z,22.30
2019-04-25T07:49:03.465Z,23.75
2019-04-25T07:51:16.172Z,17.02
2019-04-25T07:53:24.031Z,26.62
2019-04-25T07:55:33.283Z,16.02
2019-04-25T07:57:44.109Z,19.17
2019-04-25T07:59:53.716Z,13.80
2019-04-25T08:02:03.293Z,19.57
2019-04-25T08:04:11.595Z,22.67
2019-04-25T08:06:22.188Z,17.10
2019-04-25T08:08:29.815Z,17.45
2019-04-25T08:11:00.992Z,22.67
2019-04-25T08:13:08.883Z,20.45
2019-04-25T08:15:28.369Z,22.62
2019-04-25T08:17:46.449Z,22.65
2019-04-25T08:19:54.700Z,18.05
2019-04-25T08:22:03.629Z,16.37
2019-04-25T08:24:13.578Z,18.70
2019-04-25T08:26:23.658Z,17.92
2019-04-25T08:28:33.690Z,24.63
2019-04-25T08:30:41.876Z,21.20
2019-04-25T08:32:51.586Z,23.32
2019-04-25T08:34:59.673Z,24.37
2019-04-25T08:37:17.573Z,16.48
2019-04-25T08:39:17.431Z,18.25
2019-04-25T08:41:25.482Z,32.58
2019-04-25T08:43:34.831Z,24.37
2019-04-25T08:45:44.290Z,24.63
2019-04-25T08:47:53.833Z,23.18
2019-04-25T08:50:06.336Z,23.12
2019-04-25T08:52:14.127Z,23.35
2019-04-25T08:54:35.395Z,24.43
2019-04-25T08:56:43.992Z,25.08
2019-04-25T08:59:03.897Z,22.05
2019-04-25T09:01:09.228Z,18.80
2019-04-25T09:03:18.841Z,15.00
2019-04-25T09:05:36.351Z,25.10
2019-04-25T09:07:45.392Z,22.60
2019-04-25T09:09:54.563Z,24.87
2019-04-25T09:12:04.112Z,25.43
2019-04-25T09:14:13.459Z,26.75
2019-04-25T09:16:21.352Z,19.57
2019-04-25T09:18:29.189Z,23.10
2019-04-25T09:20:39.594Z,21.82
2019-04-25T09:22:46.714Z,23.18
2019-04-25T09:24:54.900Z,20.25
2019-04-25T09:27:03.669Z,23.87
2019-04-25T09:29:18.966Z,23.57
2019-04-25T09:31:23.592Z,19.77
2019-04-25T09:33:31.730Z,17.98
2019-04-25T09:35:39.834Z,21.93
2019-04-25T09:37:48.099Z,22.32
2019-04-25T09:40:06.423Z,21.60
2019-04-25T09:42:14.380Z,22.40
2019-04-25T09:44:26.827Z,19.40
2019-04-25T09:46:37.312Z,22.58
2019-04-25T09:48:58.944Z,23.98
2019-04-25T09:51:13.549Z,17.87
2019-04-25T09:53:25.537Z,17.50
2019-04-25T09:55:44.087Z,18.98
2019-04-25T09:58:00.716Z,19.57
2019-04-25T10:00:26.206Z,19.87
2019-04-25T10:02:34.029Z,20.08
2019-04-25T10:04:41.918Z,18.50
2019-04-25T10:06:50.201Z,18.90
2019-04-25T10:08:59.084Z,18.82
2019-04-25T10:11:07.100Z,16.85
2019-04-25T10:13:14.956Z,21.55
2019-04-25T10:16:01.761Z,19.62
2019-04-25T10:18:09.955Z,17.27
2019-04-25T10:20:18.296Z,19.70
2019-04-25T10:22:26.124Z,23.15
2019-04-25T10:24:34.211Z,16.90
2019-04-25T10:26:41.994Z,18.70
2019-04-25T10:28:49.977Z,18.92
2019-04-25T10:30:57.983Z,21.10
2019-04-25T10:33:06.190Z,22.70
2019-04-25T10:35:15.444Z,17.27
2019-04-25T10:37:23.370Z,15.75
2019-04-25T10:39:31.603Z,22.55
2019-04-25T10:41:40.885Z,19.45
2019-04-25T10:43:50.402Z,17.62
2019-04-25T10:45:58.611Z,15.80
2019-04-25T10:48:06.802Z,20.20
2019-04-25T10:50:15.488Z,17.80
2019-04-25T10:52:23.428Z,17.70
2019-04-25T10:54:31.427Z,18.42
2019-04-25T10:56:40.110Z,16.73
2019-04-25T10:58:48.187Z,17.30
2019-04-25T11:00:56.273Z,18.98
2019-04-25T11:03:22.185Z,14.98
2019-04-25T11:05:30.652Z,18.87
2019-04-25T11:07:38.496Z,16.23
2019-04-25T11:09:48.009Z,17.12
2019-04-25T11:11:56.182Z,19.35
2019-04-25T11:14:07.315Z,16.52
2019-04-25T11:16:16.545Z,15.50
2019-04-25T11:18:24.684Z,20.95
2019-04-25T11:20:33.928Z,17.65
2019-04-25T11:22:42.377Z,18.35
2019-04-25T11:24:52.991Z,27.10
2019-04-25T11:27:01.031Z,19.80
2019-04-25T11:29:09.056Z,15.45
2019-04-25T11:31:18.932Z,19.15
2019-04-25T11:33:26.927Z,19.95
2019-04-25T11:35:35.237Z,18.70
2019-04-25T11:37:45.074Z,18.05
2019-04-25T11:39:56.020Z,14.47
2019-04-25T11:42:05.351Z,15.32
2019-04-25T11:44:13.890Z,20.10
2019-04-25T11:46:22.189Z,20.45
2019-04-25T11:48:30.223Z,17.37
2019-04-25T11:50:39.342Z,16.57
2019-04-25T11:52:47.348Z,16.40
2019-04-25T11:54:55.761Z,26.75
2019-04-25T11:57:03.646Z,15.00
2019-04-25T11:59:13.771Z,17.90
2019-04-25T12:01:24.325Z,15.80
2019-04-25T12:03:33.648Z,20.95
2019-04-25T12:05:42.963Z,20.20
2019-04-25T12:07:51.437Z,15.58
2019-04-25T12:09:59.475Z,15.38
2019-04-25T12:12:07.527Z,16.85
2019-04-25T12:14:16.560Z,19.20
2019-04-25T12:16:25.191Z,19.00
2019-04-25T12:18:33.900Z,20.00
2019-04-25T12:20:45.869Z,17.15
2019-04-25T12:23:04.164Z,16.25
2019-04-25T12:25:04.638Z,16.25
2019-04-25T12:27:12.799Z,17.23
2019-04-25T12:29:20.583Z,12.95
2019-04-25T12:31:28.538Z,14.03
2019-04-25T12:33:36.852Z,13.50
2019-04-25T12:35:44.802Z,16.00
2019-04-25T12:37:54.053Z,15.80
2019-04-25T12:40:04.390Z,16.25
2019-04-25T12:42:14.340Z,16.05
2019-04-25T12:44:29.736Z,16.25
2019-04-25T12:46:43.631Z,17.67
2019-04-25T12:48:51.726Z,16.20
2019-04-25T12:50:59.867Z,17.17
2019-04-25T12:53:07.953Z,13.93
2019-04-25T12:55:16.781Z,18.92
2019-04-25T12:57:25.021Z,15.48
2019-04-25T12:59:32.906Z,20.12
2019-04-25T13:01:40.687Z,15.40
2019-04-25T13:03:48.694Z,9.83
2019-04-25T13:05:58.415Z,14.55
2019-04-25T13:08:06.684Z,13.88
2019-04-25T13:10:15.379Z,17.77
2019-04-25T13:12:24.067Z,17.15
2019-04-25T13:14:31.922Z,12.80
2019-04-25T13:16:40.803Z,12.03
2019-04-25T13:18:51.168Z,12.45
2019-04-25T13:20:59.182Z,10.78
2019-04-25T13:23:08.862Z,11.63
2019-04-25T13:25:18.687Z,17.50
2019-04-25T13:27:34.518Z,9.90
2019-04-25T13:29:46.721Z,10.13
2019-04-25T13:32:07.542Z,11.60
2019-04-25T13:34:35.383Z,10.13
2019-04-25T13:36:32.933Z,10.10
2019-04-25T13:38:43.645Z,11.95
2019-04-25T13:40:52.662Z,10.75
2019-04-25T13:43:00.737Z,12.40
2019-04-25T13:45:09.031Z,16.27
2019-04-25T13:47:17.254Z,7.45
2019-04-25T13:49:25.135Z,13.55
2019-04-25T13:51:33.289Z,13.30
2019-04-25T13:53:41.354Z,13.55
2019-04-25T13:55:49.267Z,9.75
2019-04-25T13:57:58.357Z,11.57
2019-04-25T14:00:10.411Z,12.95
2019-04-25T14:02:20.293Z,12.70
2019-04-25T14:04:29.493Z,11.57
2019-04-25T14:06:37.381Z,10.40
2019-04-25T14:08:45.192Z,8.45
2019-04-25T14:10:54.291Z,9.78
2019-04-25T14:13:03.519Z,13.20
2019-04-25T14:15:13.947Z,12.10
2019-04-25T14:17:40.232Z,10.20
2019-04-25T14:19:54.115Z,11.55
2019-04-25T14:22:04.322Z,12.68
2019-04-25T14:24:20.195Z,9.28
2019-04-25T14:26:22.984Z,16.82
2019-04-25T14:28:31.801Z,10.80
2019-04-25T14:30:40.613Z,11.97
2019-04-25T14:32:48.399Z,12.60
2019-04-25T14:34:56.459Z,10.65
2019-04-25T14:37:05.461Z,7.90
2019-04-25T14:39:14.165Z,9.83
2019-04-25T14:41:22.880Z,12.78
2019-04-25T14:43:32.071Z,9.83
2019-04-25T14:45:44.338Z,12.82
2019-04-25T14:47:49.763Z,14.15
2019-04-25T14:49:57.648Z,11.20
2019-04-25T14:52:05.609Z,13.38
2019-04-25T14:54:19.286Z,14.20
2019-04-25T14:56:44.005Z,10.82
2019-04-25T14:58:52.133Z,17.32
2019-04-25T15:01:00.106Z,14.83
2019-04-25T15:03:08.461Z,15.32
2019-04-25T15:05:16.721Z,14.18
2019-04-25T15:07:24.530Z,14.90
2019-04-25T15:09:32.578Z,13.18
2019-04-25T15:11:41.659Z,10.55
2019-04-25T15:13:50.632Z,10.13
2019-04-25T15:15:58.429Z,12.43
2019-04-25T15:18:06.288Z,11.05
2019-04-25T15:20:14.248Z,7.85
2019-04-25T15:22:22.133Z,15.30
2019-04-25T15:24:30.302Z,13.20
2019-04-25T15:26:40.323Z,11.22
2019-04-25T15:28:48.046Z,8.43
2019-04-25T15:30:55.902Z,10.75
2019-04-25T15:33:07.365Z,15.32
2019-04-25T15:35:17.905Z,13.78
2019-04-25T15:37:33.406Z,13.58
2019-04-25T15:39:48.926Z,15.20
2019-04-25T15:42:08.735Z,15.60
2019-04-25T15:44:33.231Z,19.32
2019-04-25T15:46:43.157Z,14.53
2019-04-25T15:48:51.112Z,19.35
2019-04-25T15:50:59.094Z,15.23
2019-04-25T15:53:08.302Z,14.10
2019-04-25T15:55:16.653Z,14.93
2019-04-25T15:57:24.621Z,18.80
2019-04-25T15:59:33.599Z,17.27
2019-04-25T16:01:42.573Z,18.82
2019-04-25T16:03:52.532Z,17.98
2019-04-25T16:06:01.112Z,22.15
2019-04-25T16:08:09.257Z,14.93
2019-04-25T16:10:19.163Z,14.78
2019-04-25T16:12:31.615Z,15.23
2019-04-25T16:14:40.119Z,19.10
2019-04-25T16:16:49.129Z,16.42
2019-04-25T16:18:57.299Z,15.95
2019-04-25T16:21:05.433Z,16.00
2019-04-25T16:23:13.495Z,20.00
2019-04-25T16:25:21.713Z,21.23
2019-04-25T16:27:30.398Z,17.42
2019-04-25T16:29:38.725Z,17.75
2019-04-25T16:31:46.821Z,14.83
2019-04-25T16:33:54.701Z,11.63
2019-04-25T16:36:02.483Z,15.50
2019-04-25T16:38:12.351Z,13.50
2019-04-25T16:40:20.314Z,19.55
2019-04-25T16:42:28.253Z,16.30
2019-04-25T16:44:36.192Z,27.07
2019-04-25T16:46:44.977Z,26.77
2019-04-25T16:49:00.344Z,16.82
2019-04-25T16:51:08.156Z,26.73
2019-04-25T16:53:18.643Z,28.35
2019-04-25T16:55:26.625Z,37.83
2019-04-25T16:57:34.858Z,31.37
2019-04-25T16:59:44.018Z,27.00
2019-04-25T17:01:51.827Z,25.50
2019-04-25T17:04:03.524Z,20.37
2019-04-25T17:06:11.467Z,20.30
2019-04-25T17:08:19.831Z,16.07
2019-04-25T17:10:29.048Z,22.00
2019-04-25T17:12:37.067Z,23.32
2019-04-25T17:15:02.280Z,28.12
2019-04-25T17:17:23.861Z,26.20
2019-04-25T17:19:37.066Z,21.57
2019-04-25T17:21:45.645Z,21.57
2019-04-25T17:23:54.306Z,24.50
2019-04-25T17:26:02.735Z,29.82
2019-04-25T17:28:16.321Z,39.95
2019-04-25T17:30:24.365Z,45.08
2019-04-25T17:32:48.564Z,27.22
2019-04-25T17:35:02.089Z,28.95
2019-04-25T17:37:14.820Z,32.75
2019-04-25T17:39:29.461Z,35.45
2019-04-25T17:41:38.386Z,25.82
2019-04-25T17:43:46.645Z,30.15
2019-04-25T17:45:54.740Z,195.72
2019-04-25T17:48:02.610Z,168.62
2019-04-25T17:50:11.954Z,95.47
2019-04-25T17:52:20.818Z,70.60
2019-04-25T17:54:29.020Z,79.55
2019-04-25T17:56:37.108Z,78.15
2019-04-25T17:58:44.907Z,73.92
2019-04-25T18:00:54.366Z,46.75
2019-04-25T18:03:02.334Z,43.65
2019-04-25T18:05:12.183Z,80.75
2019-04-25T18:07:20.087Z,62.95
2019-04-25T18:09:28.383Z,65.42
2019-04-25T18:11:36.713Z,65.87
2019-04-25T18:13:47.341Z,40.70
2019-04-25T18:16:12.934Z,70.35
2019-04-25T18:18:22.437Z,70.92
2019-04-25T18:20:31.870Z,56.35
2019-04-25T18:22:47.894Z,42.50
2019-04-25T18:25:13.238Z,49.67
2019-04-25T18:27:22.856Z,52.55
2019-04-25T18:29:30.788Z,54.70
2019-04-25T18:31:39.592Z,45.88
2019-04-25T18:33:49.188Z,44.63
2019-04-25T18:36:03.855Z,69.53
2019-04-25T18:38:13.632Z,46.35
2019-04-25T18:40:27.244Z,46.92
2019-04-25T18:42:46.445Z,45.73
2019-04-25T18:44:55.403Z,44.55
2019-04-25T18:47:03.437Z,48.85
2019-04-25T18:49:12.746Z,46.25
2019-04-25T18:51:20.761Z,43.83
2019-04-25T18:53:31.248Z,48.38
2019-04-25T18:55:57.126Z,47.55
2019-04-25T18:58:10.599Z,47.50
2019-04-25T19:00:22.231Z,42.70
2019-04-25T19:02:46.014Z,51.65
2019-04-25T19:05:14.478Z,53.87
2019-04-25T19:07:23.045Z,52.70
2019-04-25T19:09:31.477Z,48.58
2019-04-25T19:11:40.862Z,47.85
2019-04-25T19:13:49.830Z,50.03
2019-04-25T19:15:57.854Z,46.25
2019-04-25T19:18:06.121Z,48.23
2019-04-25T19:20:14.257Z,45.73
2019-04-25T19:22:22.340Z,46.08
2019-04-25T19:24:30.321Z,45.33
2019-04-25T19:26:40.727Z,51.28
2019-04-25T19:28:47.845Z,48.17
2019-04-25T19:30:55.785Z,52.95
2019-04-25T19:33:07.447Z,42.48
2019-04-25T19:35:14.952Z,44.73
2019-04-25T19:37:22.738Z,45.60
2019-04-25T19:39:32.277Z,44.58
2019-04-25T19:41:42.942Z,46.30
2019-04-25T19:43:58.327Z,49.73
2019-04-25T19:46:06.290Z,52.23
2019-04-25T19:48:14.191Z,51.95
2019-04-25T19:50:22.085Z,47.95
2019-04-25T19:52:29.955Z,45.58
2019-04-25T19:54:38.079Z,53.13
2019-04-25T19:56:45.951Z,57.93
2019-04-25T19:58:53.751Z,43.48
2019-04-25T20:01:01.748Z,43.87
2019-04-25T20:03:17.126Z,47.33
2019-04-25T20:05:29.407Z,45.45
2019-04-25T20:07:43.800Z,52.23
2019-04-25T20:09:55.897Z,44.65
2019-04-25T20:12:03.899Z,38.60
2019-04-25T20:14:12.710Z,43.85
2019-04-25T20:16:20.516Z,53.30
2019-04-25T20:18:28.489Z,43.05
2019-04-25T20:20:36.408Z,39.45
2019-04-25T20:22:44.859Z,45.45
2019-04-25T20:24:53.272Z,41.68
2019-04-25T20:27:01.195Z,45.60
2019-04-25T20:29:10.258Z,44.40
2019-04-25T20:31:18.061Z,44.00
2019-04-25T20:33:26.086Z,47.05
2019-04-25T20:35:34.256Z,45.38
2019-04-25T20:37:42.351Z,43.23
2019-04-25T20:39:51.518Z,43.48
2019-04-25T20:41:59.438Z,41.92
2019-04-25T20:44:07.234Z,43.63
2019-04-25T20:46:15.348Z,43.15
2019-04-25T20:48:23.546Z,41.23
2019-04-25T20:50:31.546Z,39.85
2019-04-25T20:52:39.909Z,36.28
2019-04-25T20:54:48.844Z,43.08
2019-04-25T20:56:57.257Z,34.83
2019-04-25T20:59:05.351Z,41.68
2019-04-25T21:01:13.150Z,37.85
2019-04-25T21:03:21.012Z,38.53
2019-04-25T21:05:28.977Z,39.58
2019-04-25T21:07:36.871Z,40.40
2019-04-25T21:09:44.765Z,41.02
2019-04-25T21:11:53.360Z,39.48
2019-04-25T21:14:01.377Z,39.75
2019-04-25T21:16:28.626Z,45.17
2019-04-25T21:18:38.236Z,44.98
2019-04-25T21:20:46.017Z,40.67
2019-04-25T21:22:55.834Z,44.83
2019-04-25T21:25:05.644Z,40.33
2019-04-25T21:27:14.048Z,42.33
2019-04-25T21:29:21.916Z,33.83
2019-04-25T21:31:29.944Z,42.70
2019-04-25T21:33:37.732Z,38.08
2019-04-25T21:35:46.278Z,46.10
2019-04-25T21:37:55.414Z,45.52
2019-04-25T21:40:15.003Z,35.60
2019-04-25T21:42:40.167Z,42.00
2019-04-25T21:44:48.268Z,40.58
2019-04-25T21:46:56.335Z,47.08
2019-04-25T21:49:05.208Z,42.93
2019-04-25T21:51:31.892Z,42.27
2019-04-25T21:53:40.366Z,39.27
2019-04-25T21:55:48.801Z,36.45
2019-04-25T21:57:58.055Z,38.15
2019-04-25T22:00:15.671Z,44.33
2019-04-25T22:02:26.170Z,43.00
2019-04-25T22:04:38.964Z,39.25
2019-04-25T22:06:44.468Z,39.55
2019-04-25T22:08:52.420Z,43.25
2019-04-25T22:11:01.680Z,42.15
2019-04-25T22:13:16.191Z,42.30
2019-04-25T22:15:20.063Z,39.67
2019-04-25T22:17:29.949Z,42.50
2019-04-25T22:19:38.176Z,45.00
2019-04-25T22:21:46.754Z,40.12
2019-04-25T22:24:06.219Z,38.35
2019-04-25T22:26:06.182Z,33.35
2019-04-25T22:28:17.938Z,36.98
2019-04-25T22:30:26.408Z,38.60
2019-04-25T22:32:36.523Z,36.65
2019-04-25T22:34:52.374Z,36.90
2019-04-25T22:37:00.038Z,39.15
2019-04-25T22:39:13.837Z,34.65
2019-04-25T22:41:22.113Z,37.13
2019-04-25T22:43:32.245Z,33.75
2019-04-25T22:45:40.815Z,37.88
2019-04-25T22:47:49.012Z,45.25
2019-04-25T22:49:56.829Z,37.67
2019-04-25T22:52:05.334Z,44.35
2019-04-25T22:54:13.133Z,41.90
2019-04-25T22:56:21.153Z,42.78
2019-04-25T22:58:28.972Z,43.33
2019-04-25T23:00:38.136Z,35.65
2019-04-25T23:02:48.389Z,40.30
2019-04-25T23:05:12.926Z,42.53
2019-04-25T23:07:17.367Z,37.40
2019-04-25T23:09:25.774Z,45.03
2019-04-25T23:11:34.118Z,52.30
2019-04-25T23:13:42.584Z,51.37
2019-04-25T23:15:50.976Z,51.35
2019-04-25T23:17:59.746Z,40.60
2019-04-25T23:20:07.785Z,46.00
2019-04-25T23:22:15.875Z,49.18
2019-04-25T23:24:26.544Z,47.60
2019-04-25T23:26:37.422Z,44.73
2019-04-25T23:28:47.027Z,39.20
2019-04-25T23:30:59.684Z,45.83
2019-04-25T23:33:08.484Z,50.85
2019-04-25T23:35:27.534Z,59.95
2019-04-25T23:37:26.560Z,55.58
2019-04-25T23:39:34.358Z,50.05
2019-04-25T23:41:42.645Z,54.18
2019-04-25T23:43:51.868Z,54.70
2019-04-25T23:46:00.339Z,51.23
2019-04-25T23:48:08.836Z,44.13
2019-04-25T23:50:17.793Z,49.65
2019-04-25T23:52:25.796Z,53.45
2019-04-25T23:54:33.787Z,46.02
2019-04-25T23:56:42.231Z,38.35
2019-04-25T23:58:50.436Z,57.70
